Time;durP1;ratioP1;P1;durP2;ratioP2;P2;SDS_P1;SDS_P2;PMS_P1;PMS_P2;Temp;Humidity;BMP_temperature;BMP_pressure;BME280_temperature;BME280_humidity;BME280_pressure;Samples;Min_cycle;Max_cycle;Signal;HPM_P1;HPM_P2
2023/06/04 00:01:28;;;;;;;9.50;9.20;;;14.10;99.90;;;;;;5083074;28;20313;-89
2023/06/04 00:04:13;;;;;;;9.20;8.90;;;14.00;99.90;;;;;;5082819;28;20228;-89
2023/06/04 00:10:33;;;;;;;9.50;9.20;;;14.00;99.90;;;;;;5082482;28;20262;-89
2023/06/04 00:13:17;;;;;;;;;;;;;;;;;;;;;
2023/06/04 00:16:27;;;;;;;9.63;9.33;;;13.70;99.90;;;;;;5076315;28;20272;-89
2023/06/04 00:19:48;;;;;;;9.90;9.60;;;13.60;99.90;;;;;;5071590;28;20277;-87
2023/06/04 00:22:24;;;;;;;9.60;9.30;;;13.50;99.90;;;;;;5081407;28;20229;-87
2023/06/04 00:25:26;;;;;;;9.60;9.30;;;13.40;99.90;;;;;;5081763;28;20241;-86
2023/06/04 00:28:06;;;;;;;9.60;9.30;;;13.40;99.90;;;;;;5081610;28;20281;-88
2023/06/04 00:31:17;;;;;;;;;;;;;;;;;;;;;
2023/06/04 00:34:05;;;;;;;;;;;;;;;;;;;;;
2023/06/04 00:42:58;;;;;;;9.70;9.40;;;13.30;99.90;;;;;;5079489;28;20217;-88
2023/06/04 00:45:46;;;;;;;9.60;9.30;;;13.30;99.90;;;;;;5081658;28;20237;-87
2023/06/04 00:48:31;;;;;;;9.40;9.10;;;13.30;99.90;;;;;;5083536;28;20234;-87
2023/06/04 00:51:09;;;;;;;9.40;9.10;;;13.20;99.90;;;;;;5061799;28;20258;-87
2023/06/04 00:53:46;;;;;;;9.30;9.00;;;13.20;99.90;;;;;;5064103;28;20226;-87
2023/06/04 00:56:27;;;;;;;9.33;9.03;;;13.20;99.90;;;;;;5064794;28;20253;-87
2023/06/04 00:59:22;;;;;;;9.47;9.17;;;13.10;99.90;;;;;;5064756;28;20227;-87
2023/06/04 01:02:09;;;;;;;9.17;8.87;;;13.10;99.90;;;;;;5064661;28;20230;-87
2023/06/04 01:04:50;;;;;;;9.63;9.33;;;13.00;99.90;;;;;;5053575;28;20223;-87
2023/06/04 01:07:28;;;;;;;9.13;8.87;;;13.00;99.90;;;;;;5060524;28;20239;-87
2023/06/04 01:13:00;;;;;;;9.43;9.13;;;13.00;99.90;;;;;;5045583;28;20229;-87
2023/06/04 01:15:34;;;;;;;9.60;9.30;;;12.90;99.90;;;;;;5046107;28;20228;-87
2023/06/04 01:18:08;;;;;;;9.70;9.40;;;12.90;99.90;;;;;;5045620;28;20223;-87
2023/06/04 01:24:00;;;;;;;9.40;9.10;;;12.70;99.90;;;;;;5052722;28;20226;-87
2023/06/04 01:26:49;;;;;;;;;;;;;;;;;;;;;
2023/06/04 01:29:40;;;;;;;9.33;9.03;;;12.60;99.90;;;;;;5057161;28;20228;-87
2023/06/04 01:32:19;;;;;;;9.30;9.00;;;12.60;99.90;;;;;;5055280;28;20255;-87
2023/06/04 01:34:57;;;;;;;9.40;9.10;;;12.60;99.90;;;;;;5045478;28;20269;-86
2023/06/04 01:37:48;;;;;;;9.30;9.00;;;12.60;99.90;;;;;;5045214;28;20270;-87
2023/06/04 01:40:34;;;;;;;;;;;;;;;;;;;;;
2023/06/04 01:46:19;;;;;;;9.40;9.10;;;12.50;99.90;;;;;;5043372;28;20226;-87
2023/06/04 01:49:18;;;;;;;9.60;9.30;;;12.50;99.90;;;;;;5043708;28;20223;-87
2023/06/04 01:52:00;;;;;;;9.60;9.30;;;12.30;99.90;;;;;;5043163;28;20231;-87
2023/06/04 01:54:41;;;;;;;9.53;9.23;;;12.20;99.90;;;;;;5044386;28;20242;-87
2023/06/04 01:57:42;;;;;;;9.40;9.10;;;12.20;99.90;;;;;;5043428;28;20239;-87
2023/06/04 02:03:19;;;;;;;9.60;9.30;;;12.20;99.90;;;;;;5043250;28;20235;-87
2023/06/04 02:06:19;;;;;;;9.60;9.30;;;12.10;99.90;;;;;;5043308;28;20259;-87
2023/06/04 02:09:08;;;;;;;9.53;9.23;;;12.10;99.90;;;;;;5043145;28;20246;-86
2023/06/04 02:11:55;;;;;;;9.57;9.27;;;12.10;99.90;;;;;;5043045;28;20338;-87
2023/06/04 02:14:36;;;;;;;9.80;9.50;;;12.10;99.90;;;;;;5042992;28;20240;-86
2023/06/04 02:20:09;;;;;;;9.60;9.30;;;12.00;99.90;;;;;;5041627;28;20303;-87
2023/06/04 02:23:11;;;;;;;9.50;9.20;;;12.00;99.90;;;;;;5043357;28;20216;-87
2023/06/04 02:25:45;;;;;;;9.60;9.30;;;11.90;99.90;;;;;;5043218;28;20237;-87
2023/06/04 02:28:20;;;;;;;9.40;9.10;;;11.80;99.90;;;;;;5044420;28;20236;-87
2023/06/04 02:30:50;;;;;;;9.10;8.87;;;11.70;99.90;;;;;;5044201;28;20227;-87
2023/06/04 02:39:26;;;;;;;9.30;9.00;;;11.60;99.90;;;;;;5042483;28;20220;-86
2023/06/04 02:42:05;;;;;;;9.33;9.03;;;11.60;99.90;;;;;;5042756;28;20227;-86
2023/06/04 02:44:45;;;;;;;9.10;8.90;;;11.60;99.90;;;;;;5042852;28;20238;-87
2023/06/04 02:47:32;;;;;;;9.97;9.67;;;11.50;99.90;;;;;;5043562;28;20230;-86
2023/06/04 02:50:08;;;;;;;9.83;9.53;;;11.50;99.90;;;;;;5043580;28;20233;-86
2023/06/04 02:52:51;;;;;;;10.10;9.80;;;11.40;99.90;;;;;;5042980;28;20313;-87
2023/06/04 02:55:29;;;;;;;9.80;9.50;;;11.40;99.90;;;;;;5044520;28;20263;-87
2023/06/04 03:00:53;;;;;;;10.00;9.70;;;11.30;99.90;;;;;;5044171;28;20219;-86
2023/06/04 03:03:31;;;;;;;10.37;10.07;;;11.30;99.90;;;;;;5044121;28;20254;-86
2023/06/04 03:06:10;;;;;;;10.23;9.93;;;11.20;99.90;;;;;;5043520;28;20231;-86
2023/06/04 03:12:02;;;;;;;;;;;;;;;;;;;;;
2023/06/04 03:14:47;;;;;;;10.20;9.90;;;11.20;99.90;;;;;;5058832;28;20216;-87
2023/06/04 03:17:25;;;;;;;9.80;9.50;;;11.00;99.90;;;;;;5048207;28;20223;-87
2023/06/04 03:20:04;;;;;;;10.10;9.80;;;11.00;99.90;;;;;;5044284;28;20235;-87
2023/06/04 03:22:44;;;;;;;9.53;9.23;;;11.00;99.90;;;;;;5044378;28;20251;-87
2023/06/04 03:25:20;;;;;;;10.00;9.70;;;11.00;99.90;;;;;;5043711;28;20227;-87
2023/06/04 03:27:52;;;;;;;9.90;9.60;;;10.70;99.90;;;;;;5042799;28;20227;-88
2023/06/04 03:30:29;;;;;;;9.93;9.63;;;10.60;99.90;;;;;;5049536;28;20223;-87
2023/06/04 03:33:24;;;;;;;9.80;9.50;;;10.60;99.90;;;;;;5055146;28;20266;-87
2023/06/04 03:41:47;;;;;;;9.70;9.40;;;10.70;99.90;;;;;;5042373;28;20231;-87
2023/06/04 03:44:16;;;;;;;9.63;9.33;;;10.70;99.90;;;;;;5041884;28;20239;-87
2023/06/04 03:47:07;;;;;;;9.80;9.50;;;10.80;99.90;;;;;;5042133;28;20270;-87
2023/06/04 03:49:57;;;;;;;9.60;9.30;;;10.80;99.90;;;;;;5042382;28;20227;-87
2023/06/04 03:52:34;;;;;;;10.20;9.90;;;10.70;99.90;;;;;;5044539;28;20241;-87
2023/06/04 03:55:21;;;;;;;9.57;9.27;;;10.70;99.90;;;;;;5063419;28;20247;-87
2023/06/04 03:58:03;;;;;;;9.77;9.47;;;10.70;99.90;;;;;;5063092;28;20227;-87
2023/06/04 04:00:37;;;;;;;9.60;9.30;;;10.70;99.90;;;;;;5063025;28;21021;-87
2023/06/04 04:03:09;;;;;;;9.50;9.20;;;10.70;99.90;;;;;;5062222;28;20289;-87
2023/06/04 04:05:39;;;;;;;9.80;9.50;;;10.70;99.90;;;;;;5064778;28;20241;-87
2023/06/04 04:08:08;;;;;;;9.53;9.23;;;10.80;99.90;;;;;;5064871;28;20222;-87
2023/06/04 04:10:36;;;;;;;9.50;9.20;;;10.80;99.90;;;;;;5064318;28;20223;-87
2023/06/04 04:13:06;;;;;;;9.50;9.20;;;10.90;99.90;;;;;;5063222;28;20231;-87
2023/06/04 04:15:37;;;;;;;9.63;9.33;;;10.90;99.90;;;;;;5065329;28;20262;-87
2023/06/04 06:57:51;;;;;;;9.80;9.50;;;16.60;99.90;;;;;;5109623;22;20329;-83
2023/06/04 08:37:28;;;;;;;9.30;9.00;;;21.00;99.90;;;;;;5385521;22;20235;-88
2023/06/04 08:40:35;;;;;;;9.30;9.00;;;21.30;99.90;;;;;;5098673;27;20233;-84
2023/06/04 08:49:07;;;;;;;9.70;9.40;;;21.80;99.90;;;;;;5061710;28;20218;-85
2023/06/04 08:59:23;;;;;;;9.70;9.40;;;22.70;99.90;;;;;;5000832;28;20244;-82
2023/06/04 09:13:25;;;;;;;9.40;9.10;;;23.40;99.90;;;;;;4961801;28;20265;-82
2023/06/04 09:17:14;;;;;;;9.50;9.20;;;23.30;99.90;;;;;;5022397;28;20232;-82
2023/06/04 09:20:18;;;;;;;9.40;9.10;;;23.30;99.90;;;;;;5036984;28;20220;-84
2023/06/04 09:23:03;;;;;;;9.20;8.90;;;23.40;99.90;;;;;;5030887;28;20280;-84
2023/06/04 09:26:04;;;;;;;9.55;9.25;;;23.50;99.90;;;;;;5030933;28;20236;-84
2023/06/04 09:29:13;;;;;;;9.30;9.00;;;23.90;99.90;;;;;;5034676;28;20234;-84
2023/06/04 09:32:12;;;;;;;9.30;9.00;;;24.00;99.90;;;;;;5066315;28;20253;-86
2023/06/04 09:34:56;;;;;;;9.43;9.13;;;24.20;99.90;;;;;;5065520;28;20313;-84
2023/06/04 09:50:02;;;;;;;9.50;9.20;;;25.00;99.90;;;;;;5063067;28;20234;-84
2023/06/04 09:52:51;;;;;;;9.30;9.00;;;25.30;99.90;;;;;;5054553;28;20308;-81
2023/06/04 10:01:35;;;;;;;9.20;8.90;;;25.80;99.90;;;;;;5064915;28;20235;-82
2023/06/04 10:04:14;;;;;;;9.50;9.20;;;25.60;99.90;;;;;;5064341;28;20242;-82
2023/06/04 10:06:50;;;;;;;9.35;9.05;;;25.40;99.90;;;;;;5066789;28;20237;-81
2023/06/04 10:09:21;;;;;;;9.50;9.20;;;25.60;99.90;;;;;;5075897;28;20265;-79
2023/06/04 10:11:59;;;;;;;9.60;9.30;;;25.80;99.90;;;;;;5075217;28;20227;-80
2023/06/04 10:14:50;;;;;;;9.40;9.10;;;25.90;99.90;;;;;;5069092;28;20226;-81
2023/06/04 10:17:25;;;;;;;9.60;9.30;;;25.70;99.90;;;;;;5064518;28;20293;-80
2023/06/04 10:19:54;;;;;;;9.30;9.00;;;26.10;99.90;;;;;;5064417;28;20238;-80
2023/06/04 10:22:24;;;;;;;9.20;8.90;;;26.00;99.90;;;;;;5063822;28;20226;-81
2023/06/04 10:25:02;;;;;;;9.35;9.05;;;26.30;99.90;;;;;;5063081;28;20223;-81
2023/06/04 10:27:34;;;;;;;9.18;8.88;;;26.50;99.90;;;;;;5063962;28;20237;-82
2023/06/04 10:30:03;;;;;;;9.07;8.77;;;26.70;99.90;;;;;;5063373;28;20289;-83
2023/06/04 10:32:42;;;;;;;9.07;8.88;;;26.70;99.90;;;;;;5062833;28;20281;-82
2023/06/04 10:35:17;;;;;;;9.30;9.00;;;26.90;99.90;;;;;;5065539;28;20278;-83
2023/06/04 10:37:50;;;;;;;9.50;9.20;;;27.10;99.90;;;;;;5136771;22;20232;-80
2023/06/04 10:40:19;;;;;;;9.77;9.48;;;26.80;99.90;;;;;;5086945;28;20255;-81
2023/06/04 10:42:47;;;;;;;9.90;9.60;;;26.60;99.90;;;;;;5084716;28;20234;-83
2023/06/04 10:45:17;;;;;;;9.88;9.57;;;26.40;99.90;;;;;;5086541;28;20260;-83
2023/06/04 10:47:48;;;;;;;9.30;9.00;;;26.40;99.90;;;;;;5072446;28;20289;-83
2023/06/04 10:50:17;;;;;;;9.48;9.18;;;26.70;99.90;;;;;;5065961;28;20239;-82
2023/06/04 10:53:02;;;;;;;9.05;8.85;;;26.80;99.90;;;;;;5066018;28;20267;-81
2023/06/04 10:55:31;;;;;;;9.20;8.90;;;26.70;99.90;;;;;;5055534;28;20220;-84
2023/06/04 10:58:08;;;;;;;9.43;9.13;;;26.60;99.90;;;;;;5061407;28;20235;-84
2023/06/04 11:00:38;;;;;;;9.18;8.88;;;26.80;99.90;;;;;;5048750;28;20234;-85
2023/06/04 11:03:16;;;;;;;9.50;9.20;;;26.70;99.90;;;;;;5063038;28;20230;-83
2023/06/04 11:05:50;;;;;;;8.90;8.70;;;26.90;99.90;;;;;;5046935;28;20230;-83
2023/06/04 11:08:35;;;;;;;9.30;9.00;;;27.10;99.90;;;;;;5045148;28;20278;-84
2023/06/04 11:11:13;;;;;;;9.50;9.20;;;27.10;99.90;;;;;;5046396;28;20235;-84
2023/06/04 11:13:43;;;;;;;8.88;8.68;;;27.10;99.90;;;;;;5045891;28;20229;-83
2023/06/04 11:16:18;;;;;;;9.40;9.10;;;27.20;99.90;;;;;;5046195;28;20331;-82
2023/06/04 11:18:57;;;;;;;9.40;9.10;;;27.50;99.90;;;;;;5045010;28;20227;-83
2023/06/04 11:21:26;;;;;;;9.40;9.10;;;27.80;99.90;;;;;;5064311;28;20238;-84
2023/06/04 11:24:04;;;;;;;9.60;9.30;;;28.00;99.90;;;;;;5065807;28;20281;-83
2023/06/04 11:26:42;;;;;;;9.57;9.27;;;28.20;99.90;;;;;;5065653;28;20238;-84
2023/06/04 11:29:15;;;;;;;9.32;9.02;;;27.80;99.20;;;;;;5065219;28;20938;-84
2023/06/04 11:31:52;;;;;;;9.32;9.02;;;27.60;99.90;;;;;;5065835;28;20222;-83
2023/06/04 11:34:31;;;;;;;9.68;9.38;;;27.60;99.90;;;;;;5068299;28;20264;-82
2023/06/04 11:37:10;;;;;;;9.57;9.27;;;27.90;99.90;;;;;;5067948;28;20261;-85
2023/06/04 11:39:40;;;;;;;9.30;9.00;;;28.30;99.90;;;;;;5066679;28;20222;-83
2023/06/04 11:42:08;;;;;;;9.63;9.32;;;28.70;99.90;;;;;;5072971;28;20269;-85
2023/06/04 11:44:36;;;;;;;9.60;9.30;;;28.80;99.50;;;;;;5066420;28;20231;-79
2023/06/04 11:48:08;;;;;;;;;;;;;;;;;;;;;
2023/06/04 11:50:52;;;;;;;9.30;9.00;;;28.20;99.90;;;;;;5045042;28;20219;-85
2023/06/04 11:53:26;;;;;;;9.77;9.48;;;28.10;99.90;;;;;;5044794;28;20234;-84
2023/06/04 12:26:28;;;;;;;9.60;9.30;;;29.90;98.00;;;;;;5062419;28;20239;-84
2023/06/04 12:29:04;;;;;;;9.50;9.20;;;29.60;97.90;;;;;;5065317;28;20231;-83
2023/06/04 12:31:39;;;;;;;9.80;9.50;;;29.50;98.90;;;;;;5063354;28;20226;-84
2023/06/04 12:34:18;;;;;;;9.70;9.40;;;29.70;96.80;;;;;;5065549;28;20237;-84
2023/06/04 12:36:55;;;;;;;9.77;9.48;;;29.60;95.80;;;;;;5065444;28;20273;-83
2023/06/04 12:39:24;;;;;;;9.63;9.32;;;29.70;96.10;;;;;;5061225;28;20234;-83
2023/06/04 12:41:55;;;;;;;9.70;9.40;;;29.70;96.40;;;;;;5064640;28;20234;-82
2023/06/04 13:03:27;;;;;;;9.82;9.52;;;30.60;93.40;;;;;;5066773;28;20227;-82
2023/06/04 13:10:00;;;;;;;10.00;9.70;;;31.10;93.30;;;;;;5024386;28;20227;-83
2023/06/04 13:12:50;;;;;;;9.93;9.63;;;31.20;91.40;;;;;;5077943;28;20322;-83
2023/06/04 13:15:27;;;;;;;10.10;9.80;;;31.00;91.60;;;;;;5079319;28;20211;-85
2023/06/04 13:18:02;;;;;;;10.10;9.80;;;31.30;92.60;;;;;;5078596;28;20241;-84
2023/06/04 13:23:43;;;;;;;9.60;9.30;;;31.20;91.70;;;;;;5069550;28;20317;-86
2023/06/04 13:26:22;;;;;;;9.85;9.55;;;31.30;92.70;;;;;;5068518;28;20257;-84
2023/06/04 13:31:45;;;;;;;9.75;9.45;;;31.60;91.60;;;;;;5065416;28;20230;-85
2023/06/04 13:34:31;;;;;;;9.68;9.38;;;31.30;90.30;;;;;;5060088;28;20231;-85
2023/06/04 13:40:14;;;;;;;9.57;9.27;;;30.30;91.20;;;;;;5071184;28;20226;-85
2023/06/04 13:43:10;;;;;;;9.70;9.40;;;29.70;91.00;;;;;;5078390;28;20218;-82
2023/06/04 13:45:47;;;;;;;9.70;9.40;;;29.40;93.60;;;;;;5077234;28;20218;-85
2023/06/04 13:53:53;;;;;;;9.73;9.43;;;29.80;91.60;;;;;;5078371;28;20227;-85
2023/06/04 13:56:20;;;;;;;9.73;9.43;;;30.20;94.30;;;;;;5076408;28;20257;-81
2023/06/04 13:58:48;;;;;;;10.13;9.82;;;30.50;92.00;;;;;;5074285;28;20219;-82
2023/06/04 14:01:18;;;;;;;9.85;9.55;;;30.90;91.90;;;;;;5073633;28;20246;-82
2023/06/04 14:03:46;;;;;;;9.90;9.60;;;31.30;92.70;;;;;;5075274;28;20223;-80
2023/06/04 14:06:14;;;;;;;10.20;9.90;;;31.60;92.30;;;;;;5074781;28;21125;-81
2023/06/04 14:08:42;;;;;;;10.30;10.00;;;31.50;91.50;;;;;;5070709;28;20227;-81
2023/06/04 14:11:10;;;;;;;9.88;9.57;;;31.50;91.30;;;;;;5068853;28;20319;-81
2023/06/04 14:13:41;;;;;;;9.80;9.50;;;31.60;91.40;;;;;;5069144;28;20238;-82
2023/06/04 14:16:08;;;;;;;10.00;9.70;;;31.70;91.20;;;;;;5071706;28;20258;-82
2023/06/04 14:18:39;;;;;;;10.20;9.90;;;31.90;90.40;;;;;;5075629;28;20222;-82
2023/06/04 14:21:07;;;;;;;10.15;9.85;;;32.20;91.20;;;;;;5076440;28;20241;-81
2023/06/04 14:23:35;;;;;;;10.50;10.20;;;32.40;88.50;;;;;;5079330;28;20226;-80
2023/06/04 14:26:03;;;;;;;10.80;10.50;;;32.60;89.20;;;;;;5078331;28;20219;-81
2023/06/04 14:28:31;;;;;;;10.85;10.55;;;32.50;88.00;;;;;;5078442;28;20302;-79
2023/06/04 14:30:59;;;;;;;10.70;10.40;;;32.70;90.00;;;;;;5078353;28;20253;-79
2023/06/04 14:33:27;;;;;;;10.35;10.05;;;32.70;90.20;;;;;;5075886;28;20298;-81
2023/06/04 14:35:57;;;;;;;10.32;10.02;;;32.60;89.00;;;;;;5073437;28;20250;-83
2023/06/04 14:38:25;;;;;;;10.10;9.80;;;32.60;88.00;;;;;;5075099;28;20274;-84
2023/06/04 14:40:56;;;;;;;10.10;9.80;;;32.50;90.10;;;;;;5076945;28;20231;-86
2023/06/04 14:43:27;;;;;;;10.02;9.73;;;32.20;88.50;;;;;;5075442;28;20241;-84
2023/06/04 14:45:55;;;;;;;10.20;9.90;;;32.30;89.20;;;;;;5075514;28;20231;-84
2023/06/04 14:48:23;;;;;;;10.13;9.82;;;32.40;90.10;;;;;;5073570;28;20231;-84
2023/06/04 14:50:53;;;;;;;10.23;9.93;;;32.50;87.30;;;;;;5076026;28;20245;-84
2023/06/04 14:56:00;;;;;;;10.20;9.90;;;32.60;86.90;;;;;;5084240;27;20227;-83
2023/06/04 14:58:28;;;;;;;10.40;10.10;;;32.40;87.60;;;;;;5077854;28;20215;-82
2023/06/04 15:00:58;;;;;;;10.20;9.90;;;32.40;84.50;;;;;;5080114;28;20290;-80
2023/06/04 15:03:28;;;;;;;10.40;10.10;;;32.30;86.00;;;;;;5080515;28;20226;-81
2023/06/04 15:05:57;;;;;;;10.20;9.90;;;32.00;87.20;;;;;;5080487;28;20211;-79
2023/06/04 15:08:27;;;;;;;10.10;9.80;;;31.70;87.60;;;;;;5080307;28;20282;-82
2023/06/04 15:10:56;;;;;;;10.40;10.10;;;31.70;89.50;;;;;;5078792;28;20233;-82
2023/06/04 15:13:34;;;;;;;9.90;9.60;;;31.60;87.10;;;;;;5075263;28;20278;-84
2023/06/04 15:16:04;;;;;;;10.20;9.90;;;31.50;85.60;;;;;;5068323;28;20498;-84
2023/06/04 15:18:33;;;;;;;10.00;9.70;;;31.10;85.60;;;;;;5068196;28;20313;-84
2023/06/04 15:21:03;;;;;;;10.02;9.73;;;31.10;86.50;;;;;;5068520;28;20238;-83
2023/06/04 15:23:34;;;;;;;10.20;9.90;;;31.10;89.20;;;;;;5074975;28;20226;-84
2023/06/04 15:26:37;;;;;;;10.30;10.00;;;31.20;89.00;;;;;;5068703;28;20245;-86
2023/06/04 15:29:09;;;;;;;9.90;9.60;;;31.40;86.60;;;;;;5065899;28;20277;-85
2023/06/04 15:31:38;;;;;;;10.20;9.90;;;31.20;87.40;;;;;;5065575;28;20298;-84
2023/06/04 15:34:06;;;;;;;10.05;9.75;;;30.90;84.10;;;;;;5075208;28;20226;-82
2023/06/04 15:36:34;;;;;;;9.93;9.63;;;30.50;88.30;;;;;;5074497;28;20321;-84
2023/06/04 15:39:04;;;;;;;9.80;9.50;;;30.40;90.50;;;;;;5068137;28;20223;-83
2023/06/04 15:41:33;;;;;;;9.75;9.45;;;30.60;90.90;;;;;;5066047;28;20241;-86
2023/06/04 15:44:02;;;;;;;9.90;9.60;;;30.80;88.80;;;;;;5065228;28;20218;-84
2023/06/04 15:46:41;;;;;;;9.63;9.32;;;30.80;84.40;;;;;;5070828;28;20242;-83
2023/06/04 15:49:10;;;;;;;10.00;9.70;;;30.70;84.60;;;;;;5065338;28;20238;-83
2023/06/04 15:51:39;;;;;;;9.80;9.50;;;30.60;83.50;;;;;;5065706;28;20234;-83
2023/06/04 15:54:11;;;;;;;9.95;9.65;;;30.40;85.80;;;;;;5066070;28;20265;-83
2023/06/04 15:56:39;;;;;;;10.00;9.70;;;30.40;87.00;;;;;;5067229;28;20241;-84
2023/06/04 15:59:08;;;;;;;10.00;9.70;;;30.40;86.00;;;;;;5067491;28;20222;-84
2023/06/04 16:01:47;;;;;;;10.10;9.80;;;30.30;88.50;;;;;;5065773;28;20255;-85
2023/06/04 16:04:16;;;;;;;10.02;9.73;;;30.50;91.40;;;;;;5065623;28;20230;-83
2023/06/04 16:06:43;;;;;;;10.20;9.90;;;30.70;88.40;;;;;;5065401;28;20231;-86
2023/06/04 16:09:16;;;;;;;10.15;9.85;;;30.90;86.80;;;;;;5063867;28;20249;-84
2023/06/04 16:11:45;;;;;;;10.02;9.73;;;30.80;89.10;;;;;;5064415;28;20231;-84
2023/06/04 16:14:17;;;;;;;9.98;9.68;;;30.90;87.80;;;;;;5063617;28;20238;-85
2023/06/04 16:16:47;;;;;;;10.18;9.88;;;31.10;88.80;;;;;;5067464;28;20261;-84
2023/06/04 16:19:23;;;;;;;10.00;9.70;;;31.10;89.00;;;;;;5067100;28;20222;-87
2023/06/04 16:21:54;;;;;;;9.85;9.55;;;31.20;87.60;;;;;;5071687;28;20226;-87
2023/06/04 16:24:27;;;;;;;10.10;9.80;;;31.30;87.40;;;;;;5067939;28;20235;-86
2023/06/04 16:27:00;;;;;;;9.88;9.57;;;31.60;86.10;;;;;;5068055;28;20234;-84
2023/06/04 16:29:31;;;;;;;9.65;9.35;;;31.60;86.70;;;;;;5068433;28;20325;-85
2023/06/04 16:32:07;;;;;;;9.60;9.30;;;31.60;85.50;;;;;;5068274;28;20290;-84
2023/06/04 16:34:38;;;;;;;9.75;9.45;;;31.60;84.50;;;;;;5050353;28;20249;-84
2023/06/04 16:39:39;;;;;;;9.93;9.63;;;31.60;84.50;;;;;;5081654;28;20206;-92
2023/06/04 16:42:15;;;;;;;9.60;9.30;;;31.50;86.20;;;;;;5083031;28;20226;-88
2023/06/04 16:44:45;;;;;;;9.63;9.32;;;31.40;85.80;;;;;;5083526;28;20202;-89
2023/06/04 16:47:59;;;;;;;9.60;9.30;;;31.50;84.70;;;;;;5082625;28;20286;-89
2023/06/04 16:50:27;;;;;;;9.40;9.10;;;31.60;84.70;;;;;;5072615;28;20214;-87
2023/06/04 16:52:57;;;;;;;9.07;8.85;;;31.50;82.50;;;;;;5083556;28;20230;-87
2023/06/04 16:55:34;;;;;;;9.60;9.30;;;31.40;84.10;;;;;;5084080;28;20218;-86
2023/06/04 16:58:03;;;;;;;9.57;9.27;;;31.20;83.70;;;;;;5072325;28;20238;-85
2023/06/04 17:00:35;;;;;;;9.40;9.10;;;31.30;85.10;;;;;;5067083;28;20718;-85
2023/06/04 17:03:49;;;;;;;9.98;9.68;;;31.30;83.70;;;;;;5064697;28;20829;-89
2023/06/04 17:07:02;;;;;;;9.80;9.50;;;31.10;84.70;;;;;;5066753;28;20234;-89
2023/06/04 17:10:08;;;;;;;10.05;9.75;;;31.20;84.30;;;;;;5064964;28;20285;-90
2023/06/04 17:16:33;;;;;;;10.30;10.00;;;31.30;82.70;;;;;;4945173;29;20257;-89
2023/06/04 17:20:05;;;;;;;10.13;9.82;;;31.60;81.40;;;;;;4985664;28;20233;-90
2023/06/04 17:38:14;;;;;;;10.20;9.90;;;30.50;85.30;;;;;;4883972;28;20230;-91
2023/06/04 17:41:03;;;;;;;9.90;9.60;;;30.00;84.50;;;;;;5025304;28;20287;-90
2023/06/04 17:55:29;;;;;;;10.02;9.73;;;29.00;83.60;;;;;;4865885;29;20245;-88
2023/06/04 17:58:22;;;;;;;9.68;9.38;;;29.00;83.10;;;;;;4905512;28;20270;-89
2023/06/04 18:00:56;;;;;;;9.70;9.40;;;29.00;81.90;;;;;;5023592;28;20399;-89
2023/06/04 18:03:43;;;;;;;;;;;;;;;;;;;;;
2023/06/04 18:06:47;;;;;;;9.90;9.60;;;29.20;83.40;;;;;;5066777;28;20203;-91
2023/06/04 18:09:32;;;;;;;9.95;9.65;;;29.20;84.90;;;;;;5062971;28;20234;-90
2023/06/04 18:12:34;;;;;;;10.00;9.70;;;29.10;84.30;;;;;;5063661;28;20242;-90
2023/06/04 18:19:17;;;;;;;10.00;9.70;;;28.60;84.60;;;;;;5009403;28;20235;-90
2023/06/04 18:28:47;;;;;;;10.00;9.70;;;27.80;83.90;;;;;;5062032;28;20288;-90
2023/06/04 18:31:18;;;;;;;9.90;9.60;;;27.20;84.20;;;;;;5064222;28;20230;-89
2023/06/04 18:34:00;;;;;;;9.90;9.60;;;26.70;85.70;;;;;;5063485;28;20227;-89
2023/06/04 18:42:45;;;;;;;10.20;9.90;;;25.60;86.80;;;;;;5061310;28;20223;-87
2023/06/04 18:45:39;;;;;;;9.80;9.50;;;25.40;87.90;;;;;;5062949;28;20238;-89
2023/06/04 18:52:32;;;;;;;9.80;9.50;;;25.00;87.80;;;;;;4971603;28;20230;-87
2023/06/04 18:55:20;;;;;;;;;;;;;;;;;;;;;
2023/06/04 18:58:18;;;;;;;9.85;9.55;;;24.40;89.40;;;;;;5046518;28;20242;-87
2023/06/04 19:02:02;;;;;;;;;;;;;;;;;;;;;
2023/06/04 19:05:10;;;;;;;9.80;9.50;;;24.00;90.00;;;;;;5050061;28;20253;-88
2023/06/04 19:07:56;;;;;;;9.77;9.48;;;23.90;90.50;;;;;;5055800;28;20230;-87
2023/06/04 19:10:45;;;;;;;9.80;9.50;;;23.70;90.70;;;;;;5062820;28;20244;-82
2023/06/04 19:13:13;;;;;;;9.98;9.68;;;23.60;90.80;;;;;;5061884;28;20231;-88
2023/06/04 19:15:52;;;;;;;10.00;9.70;;;23.50;90.90;;;;;;5061971;28;20226;-88
2023/06/04 19:18:20;;;;;;;9.80;9.50;;;23.40;90.90;;;;;;5062149;28;20223;-88
2023/06/04 19:21:25;;;;;;;9.95;9.65;;;23.30;91.30;;;;;;5063352;28;20253;-89
2023/06/04 19:24:03;;;;;;;10.15;9.85;;;23.10;91.40;;;;;;5063886;28;20249;-90
2023/06/04 19:26:46;;;;;;;9.80;9.50;;;22.90;91.40;;;;;;5061716;28;20219;-89
2023/06/04 19:29:46;;;;;;;;;;;;;;;;;;;;;
2023/06/04 19:32:15;;;;;;;10.20;9.90;;;22.70;91.70;;;;;;5062011;28;20238;-87
2023/06/04 19:34:48;;;;;;;10.20;9.90;;;22.60;91.70;;;;;;5062288;28;20261;-89
2023/06/04 19:37:31;;;;;;;9.90;9.60;;;22.50;91.70;;;;;;5062902;28;20226;-87
2023/06/04 19:40:08;;;;;;;10.10;9.80;;;22.40;91.70;;;;;;5064692;28;20219;-88
2023/06/04 19:42:39;;;;;;;9.90;9.60;;;22.40;92.10;;;;;;5076184;28;20242;-88
2023/06/04 19:48:15;;;;;;;10.07;9.77;;;22.20;92.10;;;;;;5047954;28;20262;-86
2023/06/04 19:50:43;;;;;;;9.55;9.25;;;22.20;92.20;;;;;;5072526;28;20254;-86
2023/06/04 19:53:13;;;;;;;10.15;9.85;;;22.20;92.50;;;;;;5061224;28;20297;-87
2023/06/04 19:55:41;;;;;;;9.60;9.30;;;22.10;92.70;;;;;;5061284;28;20254;-88
2023/06/04 19:58:20;;;;;;;9.60;9.30;;;22.00;92.90;;;;;;5060555;28;20230;-85
2023/06/04 20:00:48;;;;;;;9.65;9.35;;;21.70;93.10;;;;;;5061089;28;20219;-83
2023/06/04 20:03:37;;;;;;;9.80;9.50;;;21.70;94.00;;;;;;5062100;28;20226;-83
2023/06/04 20:09:00;;;;;;;9.70;9.40;;;21.40;95.80;;;;;;5059701;28;20235;-83
2023/06/04 20:11:31;;;;;;;9.82;9.52;;;21.30;97.40;;;;;;5061534;28;20230;-82
2023/06/04 20:14:11;;;;;;;10.00;9.70;;;21.20;98.40;;;;;;5061287;28;20254;-82
2023/06/04 20:16:41;;;;;;;9.75;9.45;;;21.10;98.30;;;;;;5062106;28;20230;-82
2023/06/04 20:19:08;;;;;;;9.60;9.30;;;21.10;99.00;;;;;;5060514;28;20234;-82
2023/06/04 20:21:38;;;;;;;9.70;9.40;;;21.00;99.30;;;;;;5061432;28;20226;-83
2023/06/04 20:24:15;;;;;;;9.60;9.30;;;21.00;99.70;;;;;;5061180;28;20289;-84
2023/06/04 20:26:45;;;;;;;9.93;9.63;;;20.90;99.90;;;;;;5061676;28;20246;-82
2023/06/04 20:29:14;;;;;;;10.18;9.88;;;20.90;99.90;;;;;;5061323;28;20326;-83
2023/06/04 20:31:44;;;;;;;10.20;9.90;;;20.80;99.90;;;;;;5062055;28;20233;-83
2023/06/04 20:34:14;;;;;;;9.85;9.55;;;20.60;99.90;;;;;;5061310;28;20290;-82
2023/06/04 20:36:43;;;;;;;10.20;9.90;;;20.50;99.90;;;;;;5061040;28;20233;-82
2023/06/04 20:39:33;;;;;;;10.00;9.70;;;20.40;99.90;;;;;;5059784;28;20301;-82
2023/06/04 20:42:08;;;;;;;9.90;9.60;;;20.30;99.90;;;;;;5061333;28;20222;-84
2023/06/04 20:44:38;;;;;;;9.80;9.50;;;20.20;99.90;;;;;;5059316;28;20241;-83
2023/06/04 20:47:17;;;;;;;9.90;9.60;;;20.20;99.90;;;;;;5061234;28;20230;-84
2023/06/04 20:50:57;;;;;;;;;;;;;;;;;;;;;
2023/06/04 20:57:36;;;;;;;9.73;9.43;;;19.90;99.90;;;;;;5056551;28;20211;-82
2023/06/04 21:00:12;;;;;;;9.82;9.52;;;19.90;99.90;;;;;;5074654;28;20241;-82
2023/06/04 21:02:57;;;;;;;9.77;9.48;;;19.80;99.90;;;;;;5070306;28;20282;-81
2023/06/04 21:05:36;;;;;;;10.07;9.77;;;19.70;99.90;;;;;;5060769;28;20297;-83
2023/06/04 21:08:05;;;;;;;9.95;9.65;;;19.60;99.90;;;;;;5068321;28;20276;-82
2023/06/04 21:13:50;;;;;;;9.98;9.68;;;19.50;99.90;;;;;;5065665;28;20223;-81
2023/06/04 21:19:19;;;;;;;9.80;9.50;;;19.40;99.90;;;;;;5052349;28;20349;-81
2023/06/04 21:22:30;;;;;;;9.80;9.50;;;19.30;99.90;;;;;;5064122;28;20297;-82
2023/06/04 21:25:52;;;;;;;10.00;9.70;;;19.20;99.90;;;;;;5064544;28;20231;-83
2023/06/04 21:45:01;;;;;;;10.10;9.80;;;19.00;99.90;;;;;;5062824;28;20229;-83
2023/06/04 21:48:06;;;;;;;10.18;9.88;;;19.00;99.90;;;;;;5027942;28;20255;-82
2023/06/04 21:50:44;;;;;;;10.05;9.75;;;18.90;99.90;;;;;;5047396;28;20229;-82
2023/06/04 21:53:28;;;;;;;10.20;9.90;;;18.90;99.90;;;;;;5064452;28;20269;-82
2023/06/04 21:55:58;;;;;;;10.05;9.75;;;18.80;99.90;;;;;;5069012;28;20234;-80
2023/06/04 21:58:29;;;;;;;10.20;9.90;;;18.80;99.90;;;;;;5073018;28;20230;-79
2023/06/04 22:05:05;;;;;;;10.27;9.98;;;18.70;99.90;;;;;;5056678;28;20290;-80
2023/06/04 22:07:40;;;;;;;10.45;10.15;;;18.50;99.90;;;;;;5064161;28;20226;-80
2023/06/04 22:13:54;;;;;;;10.50;10.20;;;18.40;99.90;;;;;;5064271;28;20278;-81
2023/06/04 22:16:33;;;;;;;10.50;10.20;;;18.40;99.90;;;;;;5055126;28;20226;-81
2023/06/04 22:25:38;;;;;;;10.20;9.90;;;18.30;99.90;;;;;;5063122;28;20237;-80
2023/06/04 22:31:44;;;;;;;10.40;10.10;;;18.20;99.90;;;;;;5093068;28;20314;-80
2023/06/04 22:34:17;;;;;;;10.10;9.80;;;18.20;99.90;;;;;;5104334;28;20248;-82
2023/06/04 22:37:07;;;;;;;10.50;10.20;;;18.20;99.90;;;;;;5103758;28;20248;-81
2023/06/04 22:39:43;;;;;;;10.20;9.90;;;18.10;99.90;;;;;;5096807;22;20234;-84